Terminal Aerodrome Forecast
Issued by NWS Melbourne, FL

Home | Current Version | Previous Version | Text Only | Print | Product List | Glossary On
Versions: 1 2 3 4 5 6 7 8 9 10 11 12 13 14 15 16
000
FTUS42 KMLB 031140
TAFVRB
TAF
KVRB 031140Z 0312/0412 19004KT P6SM BKN250
     FM031400 20011KT P6SM SCT030 BKN250
     FM031800 20012G18KT P6SM VCSH SCT030 BKN060
      TEMPO 0319/0322 3SM TSRA BKN020CB OVC040
     FM032200 23008KT P6SM SCT040 BKN100
      TEMPO 0322/0324 5SM -SHRA BKN030
     FM040100 22004KT P6SM SCT030 SCT100 BKN250
     FM040600 22003KT P6SM SCT100 SCT250=

USA.gov is the U.S. government's official web portal to all federal, state and local government web resources and services.